createdAt,value
2018-09-19T00:00:38.210Z,58.75
2018-09-19T00:03:07.411Z,58.28
2018-09-19T00:05:36.640Z,58.62
2018-09-19T00:08:05.972Z,58.55
2018-09-19T00:10:35.168Z,57.53
2018-09-19T00:13:04.335Z,57.38
2018-09-19T00:15:33.740Z,58.21
2018-09-19T00:18:02.912Z,58.36
2018-09-19T00:20:32.128Z,58.66
2018-09-19T00:23:01.297Z,58.68
2018-09-19T00:25:30.804Z,58.28
2018-09-19T00:27:59.986Z,58.27
2018-09-19T00:30:29.260Z,57.72
2018-09-19T00:32:58.544Z,58.60
2018-09-19T00:35:27.794Z,58.51
2018-09-19T00:38:22.775Z,57.96
2018-09-19T00:40:52.025Z,58.41
2018-09-19T00:43:21.883Z,58.02
2018-09-19T00:45:51.108Z,58.05
2018-09-19T00:48:20.279Z,58.36
2018-09-19T00:50:49.543Z,57.98
2018-09-19T00:53:18.703Z,58.19
2018-09-19T00:55:48.093Z,58.27
2018-09-19T00:58:17.644Z,57.92
2018-09-19T01:00:46.942Z,57.92
2018-09-19T01:03:16.129Z,58.47
2018-09-19T01:05:48.289Z,58.24
2018-09-19T01:08:17.915Z,57.71
2018-09-19T01:10:47.138Z,58.10
2018-09-19T01:13:16.322Z,58.49
2018-09-19T01:15:45.594Z,58.30
2018-09-19T01:18:14.939Z,58.26
2018-09-19T01:20:44.131Z,57.74
2018-09-19T01:23:13.624Z,58.33
2018-09-19T01:25:42.874Z,58.14
2018-09-19T01:28:12.541Z,57.68
2018-09-19T01:30:41.728Z,57.67
2018-09-19T01:33:10.918Z,57.60
2018-09-19T01:35:40.130Z,57.61
2018-09-19T01:38:09.298Z,57.22
2018-09-19T01:40:38.552Z,57.69
2018-09-19T01:43:07.713Z,57.80
2018-09-19T01:45:36.992Z,57.92
2018-09-19T01:48:06.249Z,57.73
2018-09-19T01:50:35.483Z,58.00
2018-09-19T01:53:04.709Z,57.99
2018-09-19T01:55:33.908Z,58.48
2018-09-19T01:58:03.171Z,59.00
2018-09-19T02:00:32.384Z,58.48
2018-09-19T02:03:01.540Z,58.32
2018-09-19T02:05:30.745Z,58.03
2018-09-19T02:07:59.922Z,57.58
2018-09-19T02:10:29.151Z,57.80
2018-09-19T02:13:01.231Z,57.43
2018-09-19T02:15:30.458Z,57.35
2018-09-19T02:17:59.625Z,58.01
2018-09-19T02:20:29.891Z,57.30
2018-09-19T02:22:59.043Z,57.22
2018-09-19T02:25:28.339Z,57.95
2018-09-19T02:27:57.479Z,58.03
2018-09-19T02:30:26.780Z,57.39
2018-09-19T02:32:56.060Z,57.93
2018-09-19T02:35:25.736Z,58.65
2018-09-19T02:37:54.908Z,59.05
2018-09-19T02:40:24.164Z,59.00
2018-09-19T02:42:53.331Z,58.71
2018-09-19T02:45:22.570Z,59.33
2018-09-19T02:47:51.759Z,58.82
2018-09-19T02:50:20.990Z,59.10
2018-09-19T02:52:54.386Z,58.32
2018-09-19T02:55:24.337Z,58.27
2018-09-19T02:57:53.564Z,58.96
2018-09-19T03:00:22.789Z,58.45
2018-09-19T03:02:52.241Z,58.65
2018-09-19T03:05:21.911Z,58.27
2018-09-19T03:07:51.124Z,58.64
2018-09-19T03:10:20.339Z,58.37
2018-09-19T03:12:49.595Z,59.45
2018-09-19T03:15:18.984Z,59.56
2018-09-19T03:17:48.438Z,59.61
2018-09-19T03:20:17.875Z,59.54
2018-09-19T03:22:47.133Z,59.64
2018-09-19T03:25:16.992Z,59.51
2018-09-19T03:27:46.206Z,60.04
2018-09-19T03:30:17.027Z,59.81
2018-09-19T03:32:46.238Z,60.38
2018-09-19T03:35:17.374Z,60.84
2018-09-19T03:37:46.535Z,60.06
2018-09-19T03:40:17.331Z,59.87
2018-09-19T03:42:46.604Z,60.35
2018-09-19T03:45:17.192Z,60.61
2018-09-19T03:47:46.350Z,60.49
2018-09-19T03:50:16.769Z,60.06
2018-09-19T03:52:45.956Z,60.44
2018-09-19T03:55:16.238Z,60.71
2018-09-19T03:57:45.481Z,60.30
2018-09-19T04:00:15.536Z,60.12
2018-09-19T04:02:44.829Z,60.10
2018-09-19T04:05:15.063Z,60.33
2018-09-19T04:07:44.294Z,59.91
2018-09-19T04:10:15.194Z,60.03
2018-09-19T04:12:44.486Z,59.81
2018-09-19T04:15:14.693Z,60.28
2018-09-19T04:17:43.968Z,60.34
2018-09-19T04:20:13.139Z,60.37
2018-09-19T04:22:42.338Z,60.48
2018-09-19T04:25:11.561Z,60.51
2018-09-19T04:27:40.760Z,60.66
2018-09-19T04:30:10.012Z,61.79
2018-09-19T04:32:39.260Z,60.63
2018-09-19T04:35:08.512Z,61.04
2018-09-19T04:37:37.713Z,60.99
2018-09-19T04:40:07.020Z,61.46
2018-09-19T04:42:36.288Z,60.64
2018-09-19T04:45:05.529Z,60.88
2018-09-19T04:47:34.746Z,60.91
2018-09-19T04:50:04.078Z,60.73
2018-09-19T04:52:35.118Z,61.39
2018-09-19T04:55:05.484Z,61.20
2018-09-19T04:57:34.742Z,61.57
2018-09-19T05:00:04.042Z,60.63
2018-09-19T05:02:33.276Z,61.68
2018-09-19T05:05:02.574Z,61.29
2018-09-19T05:07:31.824Z,60.70
2018-09-19T05:10:01.024Z,61.31
2018-09-19T05:12:30.242Z,60.40
2018-09-19T05:14:59.418Z,60.44
2018-09-19T05:17:28.634Z,61.20
2018-09-19T05:19:57.843Z,60.61
2018-09-19T05:22:27.073Z,59.48
2018-09-19T05:24:56.330Z,60.05
2018-09-19T05:27:25.564Z,60.40
2018-09-19T05:29:54.759Z,59.62
2018-09-19T05:32:24.106Z,60.05
2018-09-19T05:34:53.319Z,59.56
2018-09-19T05:37:22.553Z,59.07
2018-09-19T05:39:51.752Z,58.59
2018-09-19T05:42:20.960Z,59.17
2018-09-19T05:44:50.310Z,58.71
2018-09-19T05:47:19.517Z,57.64
2018-09-19T05:49:48.710Z,57.54
2018-09-19T05:52:18.340Z,57.41
2018-09-19T05:54:47.575Z,57.65
2018-09-19T05:57:16.799Z,57.54
2018-09-19T05:59:46.053Z,56.46
2018-09-19T06:02:15.260Z,54.92
2018-09-19T06:04:44.452Z,51.84
2018-09-19T06:07:13.695Z,49.78
2018-09-19T06:09:42.900Z,47.70
2018-09-19T06:12:12.171Z,46.20
2018-09-19T06:14:42.381Z,43.63
2018-09-19T06:17:11.614Z,43.36
2018-09-19T06:19:40.816Z,42.03
2018-09-19T06:22:10.238Z,41.34
2018-09-19T06:24:39.836Z,40.25
2018-09-19T06:27:09.581Z,40.44
2018-09-19T06:29:38.821Z,39.23
2018-09-19T06:32:08.399Z,39.39
2018-09-19T06:34:37.591Z,38.66
2018-09-19T06:37:07.429Z,39.17
2018-09-19T06:39:36.578Z,37.64
2018-09-19T06:42:05.857Z,37.92
2018-09-19T06:44:35.054Z,38.25
2018-09-19T06:47:04.318Z,38.35
2018-09-19T06:49:33.490Z,37.33
2018-09-19T06:52:02.715Z,37.54
2018-09-19T06:54:31.856Z,36.96
2018-09-19T06:57:01.150Z,36.61
2018-09-19T06:59:30.384Z,36.13
2018-09-19T07:01:59.641Z,37.31
2018-09-19T07:04:28.818Z,36.24
2018-09-19T07:06:58.065Z,36.55
2018-09-19T07:09:27.257Z,35.46
2018-09-19T07:11:56.469Z,36.27
2018-09-19T07:14:25.796Z,35.62
2018-09-19T07:16:55.010Z,36.71
2018-09-19T07:19:24.273Z,36.06
2018-09-19T07:21:53.512Z,35.55
2018-09-19T07:24:22.752Z,35.39
2018-09-19T07:26:51.965Z,35.84
2018-09-19T07:29:21.159Z,36.18
2018-09-19T07:31:50.441Z,35.98
2018-09-19T07:34:19.640Z,36.55
2018-09-19T07:36:48.959Z,36.50
2018-09-19T07:39:18.134Z,36.61
2018-09-19T07:41:47.348Z,35.72
2018-09-19T07:44:16.555Z,35.56
2018-09-19T07:46:45.901Z,33.96
2018-09-19T07:49:15.187Z,35.51
2018-09-19T07:51:44.404Z,35.56
2018-09-19T07:54:13.586Z,36.22
2018-09-19T07:56:42.848Z,35.17
2018-09-19T07:59:12.049Z,35.29
2018-09-19T08:01:41.304Z,34.96
2018-09-19T08:04:10.622Z,35.96
2018-09-19T08:06:39.871Z,34.87
2018-09-19T08:09:10.123Z,35.18
2018-09-19T08:11:39.313Z,35.42
2018-09-19T08:14:08.863Z,34.52
2018-09-19T08:16:38.162Z,35.21
2018-09-19T08:19:07.814Z,35.28
2018-09-19T08:21:37.120Z,35.65
2018-09-19T08:24:06.412Z,36.34
2018-09-19T08:26:35.618Z,35.87
2018-09-19T08:29:04.836Z,35.82
2018-09-19T08:31:34.075Z,35.51
2018-09-19T08:34:03.321Z,35.93
2018-09-19T08:36:32.594Z,35.09
2018-09-19T08:39:01.833Z,34.70
2018-09-19T08:41:31.204Z,35.21
2018-09-19T08:44:00.401Z,34.73
2018-09-19T08:46:29.727Z,34.68
2018-09-19T08:48:58.971Z,35.86
2018-09-19T08:51:28.272Z,37.08
2018-09-19T08:53:57.516Z,36.95
2018-09-19T08:56:26.777Z,36.97
2018-09-19T08:58:55.943Z,38.12
2018-09-19T09:01:25.211Z,37.44
2018-09-19T09:03:54.411Z,37.98
2018-09-19T09:06:23.663Z,38.89
2018-09-19T09:08:52.871Z,39.63
2018-09-19T09:11:22.215Z,38.68
2018-09-19T09:13:51.450Z,40.12
2018-09-19T09:16:20.718Z,40.00
2018-09-19T09:18:49.967Z,38.83
2018-09-19T09:21:19.201Z,39.50
2018-09-19T09:23:48.431Z,40.01
2018-09-19T09:26:17.745Z,39.80
2018-09-19T09:28:46.962Z,39.45
2018-09-19T09:31:16.246Z,40.20
2018-09-19T09:33:45.420Z,39.83
2018-09-19T09:36:14.676Z,40.09
2018-09-19T09:38:43.869Z,39.56
2018-09-19T09:41:13.095Z,39.47
2018-09-19T09:43:42.354Z,39.07
2018-09-19T09:46:11.636Z,38.92
2018-09-19T09:48:40.897Z,38.96
2018-09-19T09:51:10.481Z,38.03
2018-09-19T09:53:39.782Z,39.27
2018-09-19T09:56:09.670Z,38.62
2018-09-19T09:58:39.110Z,38.47
2018-09-19T10:01:10.932Z,38.07
2018-09-19T10:03:41.351Z,38.63
2018-09-19T10:06:12.811Z,38.83
2018-09-19T10:08:42.994Z,38.17
2018-09-19T10:11:14.248Z,38.42
2018-09-19T10:13:43.521Z,38.44
2018-09-19T10:16:12.959Z,38.45
2018-09-19T10:18:42.207Z,37.96
2018-09-19T10:21:11.515Z,37.43
2018-09-19T10:23:40.711Z,37.44
2018-09-19T10:26:10.467Z,37.13
2018-09-19T10:28:39.668Z,36.95
2018-09-19T10:31:09.482Z,37.50
2018-09-19T10:33:38.659Z,37.89
2018-09-19T10:36:08.616Z,38.05
2018-09-19T10:38:37.827Z,36.91
2018-09-19T10:41:07.515Z,37.18
2018-09-19T10:43:36.804Z,36.51
2018-09-19T10:46:06.276Z,36.54
2018-09-19T10:48:35.520Z,36.89
2018-09-19T10:51:04.791Z,36.79
2018-09-19T10:53:34.088Z,36.45
2018-09-19T10:56:03.584Z,36.06
2018-09-19T10:58:32.821Z,36.81
2018-09-19T11:01:02.366Z,37.20
2018-09-19T11:03:31.666Z,36.23
2018-09-19T11:06:00.879Z,35.61
2018-09-19T11:08:30.097Z,35.90
2018-09-19T11:10:59.323Z,36.85
2018-09-19T11:13:28.528Z,37.21
2018-09-19T11:15:57.825Z,36.82
2018-09-19T11:18:27.053Z,36.06
2018-09-19T11:20:56.300Z,36.17
2018-09-19T11:23:25.495Z,36.81
2018-09-19T11:25:54.732Z,36.98
2018-09-19T11:28:23.932Z,37.28
2018-09-19T11:30:53.223Z,36.65
2018-09-19T11:33:22.430Z,36.66
2018-09-19T11:35:51.684Z,36.52
2018-09-19T11:38:20.862Z,36.24
2018-09-19T11:40:50.069Z,35.49
2018-09-19T11:43:19.373Z,36.51
2018-09-19T11:45:48.616Z,36.67
2018-09-19T11:48:17.900Z,36.08
2018-09-19T11:50:47.135Z,35.70
2018-09-19T11:53:24.365Z,35.09
2018-09-19T11:55:53.642Z,35.00
2018-09-19T11:58:23.004Z,35.66
2018-09-19T12:00:52.364Z,35.31
2018-09-19T12:03:21.631Z,35.49
2018-09-19T12:05:50.896Z,36.08
2018-09-19T12:08:20.824Z,34.88
2018-09-19T12:10:50.223Z,36.13
2018-09-19T12:13:19.431Z,36.04
2018-09-19T12:15:48.735Z,35.23
2018-09-19T12:18:17.972Z,35.52
2018-09-19T12:20:47.207Z,36.32
2018-09-19T12:23:16.404Z,35.34
2018-09-19T12:25:45.636Z,35.42
2018-09-19T12:28:14.836Z,35.70
2018-09-19T12:30:44.131Z,35.56
2018-09-19T12:33:13.361Z,35.15
2018-09-19T12:35:42.596Z,35.29
2018-09-19T12:38:11.782Z,35.33
2018-09-19T12:40:41.003Z,35.25
2018-09-19T12:43:10.597Z,36.28
2018-09-19T12:45:39.867Z,34.90
2018-09-19T12:48:09.603Z,35.75
2018-09-19T12:50:38.964Z,35.27
2018-09-19T12:53:08.617Z,34.30
2018-09-19T12:55:37.867Z,34.96
2018-09-19T12:58:07.334Z,34.88
2018-09-19T13:00:36.608Z,35.01
2018-09-19T13:03:05.825Z,34.60
2018-09-19T13:05:35.091Z,34.24
2018-09-19T13:08:04.281Z,35.36
2018-09-19T13:10:33.896Z,34.40
2018-09-19T13:13:03.123Z,35.52
2018-09-19T13:15:32.443Z,35.23
2018-09-19T13:18:01.638Z,34.69
2018-09-19T13:20:31.838Z,35.45
2018-09-19T13:23:01.066Z,35.29
2018-09-19T13:25:30.348Z,34.80
2018-09-19T13:27:59.557Z,34.65
2018-09-19T13:30:28.833Z,33.88
2018-09-19T13:32:58.055Z,33.93
2018-09-19T13:35:27.336Z,34.04
2018-09-19T13:37:56.542Z,34.03
2018-09-19T13:40:25.945Z,33.56
2018-09-19T13:42:55.198Z,33.68
2018-09-19T13:45:24.442Z,33.92
2018-09-19T13:47:53.717Z,34.36
2018-09-19T13:51:31.058Z,34.66
2018-09-19T13:54:00.257Z,33.15
2018-09-19T13:56:29.502Z,33.24
2018-09-19T13:58:58.748Z,33.25
2018-09-19T14:01:28.232Z,33.50
2018-09-19T14:03:57.472Z,33.36
2018-09-19T14:06:26.780Z,33.88
2018-09-19T14:08:56.099Z,33.34
2018-09-19T14:11:25.328Z,33.89
2018-09-19T14:13:54.554Z,34.29
2018-09-19T14:16:23.773Z,34.33
2018-09-19T14:18:52.966Z,34.49
2018-09-19T14:21:22.222Z,35.31
2018-09-19T14:23:51.421Z,34.83
2018-09-19T14:26:20.700Z,35.21
2018-09-19T14:28:49.928Z,35.09
2018-09-19T14:31:19.210Z,34.96
2018-09-19T14:33:48.439Z,33.85
2018-09-19T14:36:17.736Z,34.48
2018-09-19T14:38:46.952Z,35.07
2018-09-19T14:41:16.250Z,34.21
2018-09-19T14:43:45.468Z,34.08
2018-09-19T14:46:14.722Z,33.41
2018-09-19T14:48:44.064Z,34.83
2018-09-19T14:51:13.332Z,34.00
2018-09-19T14:53:42.510Z,34.98
2018-09-19T14:56:11.764Z,34.89
2018-09-19T14:58:40.981Z,35.34
2018-09-19T15:01:10.267Z,34.53
2018-09-19T15:03:39.594Z,34.50
2018-09-19T15:06:09.259Z,34.70
2018-09-19T15:08:38.543Z,34.90
2018-09-19T15:11:08.165Z,35.08
2018-09-19T15:13:37.463Z,35.35
2018-09-19T15:16:07.175Z,35.31
2018-09-19T15:18:36.427Z,35.44
2018-09-19T15:21:05.943Z,34.67
2018-09-19T15:23:35.227Z,34.67
2018-09-19T15:26:04.504Z,36.12
2018-09-19T15:28:33.896Z,35.58
2018-09-19T15:31:03.079Z,35.63
2018-09-19T15:33:32.302Z,36.11
2018-09-19T15:36:01.607Z,35.90
2018-09-19T15:38:30.867Z,35.73
2018-09-19T15:41:00.023Z,35.13
2018-09-19T15:43:29.273Z,35.32
2018-09-19T15:45:58.998Z,34.89
2018-09-19T15:48:28.279Z,35.41
2018-09-19T15:50:57.526Z,35.59
2018-09-19T15:53:31.553Z,35.56
2018-09-19T15:56:02.072Z,36.48
2018-09-19T15:58:31.317Z,35.08
2018-09-19T16:01:00.576Z,35.22
2018-09-19T16:03:30.069Z,35.09
2018-09-19T16:05:59.354Z,34.86
2018-09-19T16:08:28.522Z,34.96
2018-09-19T16:10:57.780Z,35.19
2018-09-19T16:13:27.053Z,35.31
2018-09-19T16:15:56.278Z,34.44
2018-09-19T16:18:25.557Z,34.77
2018-09-19T16:20:54.830Z,35.50
2018-09-19T16:23:23.983Z,35.50
2018-09-19T16:25:53.538Z,34.87
2018-09-19T16:28:22.815Z,35.65
2018-09-19T16:30:52.005Z,35.94
2018-09-19T16:33:21.391Z,35.70
2018-09-19T16:35:50.596Z,35.85
2018-09-19T16:38:19.795Z,36.45
2018-09-19T16:40:49.079Z,37.32
2018-09-19T16:43:18.315Z,36.64
2018-09-19T16:45:47.580Z,36.07
2018-09-19T16:48:16.780Z,37.22
2018-09-19T16:50:46.126Z,36.45
2018-09-19T16:53:15.532Z,37.11
2018-09-19T16:55:44.759Z,36.90
2018-09-19T16:58:13.985Z,37.86
2018-09-19T17:00:43.306Z,37.00
2018-09-19T17:03:12.815Z,38.03
2018-09-19T17:05:42.208Z,38.24
2018-09-19T17:08:11.651Z,38.07
2018-09-19T17:10:41.243Z,37.96
2018-09-19T17:13:10.881Z,39.57
2018-09-19T17:15:40.157Z,38.99
2018-09-19T17:18:09.606Z,40.33
2018-09-19T17:20:38.882Z,40.37
2018-09-19T17:23:08.296Z,39.78
2018-09-19T17:25:37.610Z,39.35
2018-09-19T17:28:06.794Z,40.42
2018-09-19T17:30:36.054Z,40.30
2018-09-19T17:33:06.132Z,40.03
2018-09-19T17:35:35.373Z,40.28
2018-09-19T17:38:04.611Z,40.17
2018-09-19T17:40:33.900Z,41.09
2018-09-19T17:43:03.081Z,41.44
2018-09-19T17:45:32.340Z,41.03
2018-09-19T17:48:01.605Z,41.37
2018-09-19T17:50:30.873Z,41.40
2018-09-19T17:53:00.185Z,40.99
2018-09-19T17:55:29.505Z,40.97
2018-09-19T17:57:58.745Z,41.76
2018-09-19T18:00:27.992Z,42.11
2018-09-19T18:02:57.223Z,42.36
2018-09-19T18:05:26.559Z,41.93
2018-09-19T18:07:55.729Z,42.33
2018-09-19T18:10:24.982Z,42.20
2018-09-19T18:12:54.195Z,41.68
2018-09-19T18:15:23.467Z,41.96
2018-09-19T18:17:52.808Z,41.87
2018-09-19T18:20:22.091Z,41.75
2018-09-19T18:22:51.399Z,41.61
2018-09-19T18:25:20.681Z,41.76
2018-09-19T18:27:49.891Z,42.73
2018-09-19T18:30:19.254Z,42.32
2018-09-19T18:32:48.424Z,43.11
2018-09-19T18:35:18.068Z,42.37
2018-09-19T18:37:47.288Z,42.46
2018-09-19T18:40:18.274Z,42.45
2018-09-19T18:42:48.293Z,43.42
2018-09-19T18:45:17.963Z,42.80
2018-09-19T18:47:47.177Z,43.60
2018-09-19T18:50:17.076Z,43.55
2018-09-19T18:52:46.292Z,44.44
2018-09-19T18:55:16.104Z,44.19
2018-09-19T18:57:45.271Z,43.85
2018-09-19T19:00:15.540Z,44.59
2018-09-19T19:02:44.829Z,44.11
2018-09-19T19:05:15.071Z,44.71
2018-09-19T19:07:44.283Z,44.35
2018-09-19T19:10:15.224Z,44.46
2018-09-19T19:12:44.652Z,44.82
2018-09-19T19:15:13.921Z,44.46
2018-09-19T19:17:43.090Z,45.00
2018-09-19T19:20:14.202Z,45.43
2018-09-19T19:22:43.434Z,45.29
2018-09-19T19:25:12.841Z,45.61
2018-09-19T19:27:42.119Z,46.03
2018-09-19T19:30:11.396Z,45.43
2018-09-19T19:32:40.691Z,45.44
2018-09-19T19:35:09.961Z,46.09
2018-09-19T19:37:39.234Z,45.92
2018-09-19T19:40:08.462Z,45.73
2018-09-19T19:42:37.686Z,45.54
2018-09-19T19:45:07.061Z,45.79
2018-09-19T19:47:36.356Z,45.85
2018-09-19T19:50:05.810Z,46.58
2018-09-19T19:52:35.059Z,46.70
2018-09-19T19:55:04.382Z,46.09
2018-09-19T19:57:33.640Z,46.25
2018-09-19T20:00:03.067Z,47.27
2018-09-19T20:02:32.330Z,46.55
2018-09-19T20:05:01.507Z,47.33
2018-09-19T20:07:30.740Z,47.43
2018-09-19T20:09:59.997Z,47.13
2018-09-19T20:12:29.224Z,47.63
2018-09-19T20:14:58.511Z,47.00
2018-09-19T20:17:28.353Z,47.09
2018-09-19T20:19:57.829Z,47.11
2018-09-19T20:22:27.107Z,47.16
2018-09-19T20:24:56.290Z,47.98
2018-09-19T20:27:25.500Z,48.10
2018-09-19T20:29:54.775Z,48.07
2018-09-19T20:32:24.425Z,48.05
2018-09-19T20:34:53.620Z,48.28
2018-09-19T20:37:22.873Z,48.32
2018-09-19T20:39:52.222Z,48.34
2018-09-19T20:42:21.420Z,47.59
2018-09-19T20:44:50.617Z,48.45
2018-09-19T20:47:20.081Z,47.72
2018-09-19T20:49:49.471Z,47.90
2018-09-19T20:52:18.735Z,48.70
2018-09-19T20:54:47.904Z,48.74
2018-09-19T20:57:17.134Z,48.01
2018-09-19T20:59:46.320Z,48.78
2018-09-19T21:02:15.605Z,49.04
2018-09-19T21:04:44.876Z,49.25
2018-09-19T21:07:14.283Z,48.68
2018-09-19T21:09:43.959Z,49.08
2018-09-19T21:12:13.894Z,48.94
2018-09-19T21:14:43.141Z,48.52
2018-09-19T21:17:13.054Z,49.29
2018-09-19T21:19:42.211Z,49.53
2018-09-19T21:22:11.563Z,49.49
2018-09-19T21:24:40.683Z,48.81
2018-09-19T21:27:09.983Z,49.40
2018-09-19T21:29:39.200Z,50.00
2018-09-19T21:32:08.505Z,50.11
2018-09-19T21:34:38.002Z,49.52
2018-09-19T21:37:07.237Z,49.85
2018-09-19T21:39:36.466Z,50.40
2018-09-19T21:42:05.723Z,50.72
2018-09-19T21:44:35.062Z,50.57
2018-09-19T21:47:04.291Z,50.03
2018-09-19T21:49:33.646Z,50.07
2018-09-19T21:52:02.848Z,50.06
2018-09-19T21:54:32.098Z,51.10
2018-09-19T21:57:01.319Z,50.36
2018-09-19T21:59:30.603Z,51.04
2018-09-19T22:02:00.886Z,50.54
2018-09-19T22:04:30.151Z,50.77
2018-09-19T22:06:59.386Z,51.66
2018-09-19T22:09:28.600Z,51.68
2018-09-19T22:11:57.893Z,51.39
2018-09-19T22:14:27.114Z,51.38
2018-09-19T22:16:56.344Z,51.90
2018-09-19T22:19:25.612Z,51.93
2018-09-19T22:21:54.899Z,51.56
2018-09-19T22:24:24.161Z,51.86
2018-09-19T22:26:53.397Z,52.57
2018-09-19T22:29:22.711Z,51.73
2018-09-19T22:31:51.924Z,52.37
2018-09-19T22:34:21.148Z,52.56
2018-09-19T22:36:50.413Z,53.07
2018-09-19T22:39:19.656Z,52.72
2018-09-19T22:41:48.916Z,52.99
2018-09-19T22:44:18.297Z,52.98
2018-09-19T22:46:47.631Z,52.76
2018-09-19T22:49:16.917Z,52.47
2018-09-19T22:51:46.297Z,52.61
2018-09-19T22:54:15.862Z,53.06
2018-09-19T22:56:45.104Z,52.90
2018-09-19T22:59:14.922Z,53.54
2018-09-19T23:01:44.200Z,53.94
2018-09-19T23:04:13.978Z,53.26
2018-09-19T23:06:43.208Z,53.69
2018-09-19T23:09:12.711Z,53.18
2018-09-19T23:11:41.900Z,54.25
2018-09-19T23:14:11.150Z,53.99
2018-09-19T23:16:40.353Z,54.25
2018-09-19T23:19:09.587Z,53.85
2018-09-19T23:21:38.840Z,54.39
2018-09-19T23:24:08.035Z,54.09
2018-09-19T23:26:37.287Z,54.46
2018-09-19T23:29:06.536Z,54.76
2018-09-19T23:31:35.815Z,54.54
2018-09-19T23:34:05.015Z,54.84
2018-09-19T23:36:34.256Z,54.75
2018-09-19T23:39:03.998Z,54.79
2018-09-19T23:41:33.261Z,54.26
2018-09-19T23:44:02.471Z,54.41
2018-09-19T23:46:31.726Z,55.37
2018-09-19T23:49:00.944Z,55.17
2018-09-19T23:51:30.208Z,55.93
2018-09-19T23:53:59.426Z,55.83
2018-09-19T23:56:28.717Z,56.20
2018-09-19T23:58:57.934Z,55.99
